sensor_id;sensor_type;location;lat;lon;timestamp;P1;durP1;ratioP1;P2;durP2;ratioP2
14076;SDS011;7114;51.100;13.998;2024-02-26T00:00:08;15.95;;;7.20;;
14076;SDS011;7114;51.100;13.998;2024-02-26T00:02:37;17.13;;;7.32;;
14076;SDS011;7114;51.100;13.998;2024-02-26T00:05:05;17.25;;;7.13;;
14076;SDS011;7114;51.100;13.998;2024-02-26T00:07:32;17.75;;;7.13;;
14076;SDS011;7114;51.100;13.998;2024-02-26T00:10:00;16.40;;;7.20;;
14076;SDS011;7114;51.100;13.998;2024-02-26T00:12:26;17.35;;;7.30;;
14076;SDS011;7114;51.100;13.998;2024-02-26T00:14:52;17.42;;;7.70;;
14076;SDS011;7114;51.100;13.998;2024-02-26T00:17:18;16.38;;;7.25;;
14076;SDS011;7114;51.100;13.998;2024-02-26T00:19:46;16.80;;;7.30;;
14076;SDS011;7114;51.100;13.998;2024-02-26T00:22:12;17.60;;;7.17;;
14076;SDS011;7114;51.100;13.998;2024-02-26T00:24:39;17.08;;;7.30;;
14076;SDS011;7114;51.100;13.998;2024-02-26T00:27:06;18.60;;;7.50;;
14076;SDS011;7114;51.100;13.998;2024-02-26T00:29:33;17.27;;;7.13;;
14076;SDS011;7114;51.100;13.998;2024-02-26T00:32:00;15.20;;;7.07;;
14076;SDS011;7114;51.100;13.998;2024-02-26T00:34:26;20.30;;;7.80;;
14076;SDS011;7114;51.100;13.998;2024-02-26T00:36:54;18.45;;;8.13;;
14076;SDS011;7114;51.100;13.998;2024-02-26T00:39:20;17.98;;;8.23;;
14076;SDS011;7114;51.100;13.998;2024-02-26T00:41:46;19.08;;;7.85;;
14076;SDS011;7114;51.100;13.998;2024-02-26T00:44:13;19.17;;;8.20;;
14076;SDS011;7114;51.100;13.998;2024-02-26T00:46:39;21.23;;;7.37;;
14076;SDS011;7114;51.100;13.998;2024-02-26T00:49:05;16.33;;;6.93;;
14076;SDS011;7114;51.100;13.998;2024-02-26T00:51:32;17.50;;;7.57;;
14076;SDS011;7114;51.100;13.998;2024-02-26T00:53:59;17.05;;;7.40;;
14076;SDS011;7114;51.100;13.998;2024-02-26T00:56:26;16.90;;;6.90;;
14076;SDS011;7114;51.100;13.998;2024-02-26T00:58:52;15.40;;;6.07;;
14076;SDS011;7114;51.100;13.998;2024-02-26T01:01:18;15.18;;;6.60;;
14076;SDS011;7114;51.100;13.998;2024-02-26T01:03:45;15.65;;;6.20;;
14076;SDS011;7114;51.100;13.998;2024-02-26T01:06:11;14.70;;;6.20;;
14076;SDS011;7114;51.100;13.998;2024-02-26T01:08:37;15.57;;;6.00;;
14076;SDS011;7114;51.100;13.998;2024-02-26T01:11:05;16.40;;;5.97;;
14076;SDS011;7114;51.100;13.998;2024-02-26T01:13:31;15.25;;;6.20;;
14076;SDS011;7114;51.100;13.998;2024-02-26T01:15:58;15.18;;;6.78;;
14076;SDS011;7114;51.100;13.998;2024-02-26T01:18:25;16.30;;;6.40;;
14076;SDS011;7114;51.100;13.998;2024-02-26T01:20:51;16.63;;;6.93;;
14076;SDS011;7114;51.100;13.998;2024-02-26T01:23:19;16.43;;;6.60;;
14076;SDS011;7114;51.100;13.998;2024-02-26T01:25:45;15.05;;;6.32;;
14076;SDS011;7114;51.100;13.998;2024-02-26T01:28:13;16.50;;;6.75;;
14076;SDS011;7114;51.100;13.998;2024-02-26T01:30:39;17.08;;;6.85;;
14076;SDS011;7114;51.100;13.998;2024-02-26T01:33:06;16.17;;;7.00;;
14076;SDS011;7114;51.100;13.998;2024-02-26T01:35:33;17.70;;;7.27;;
14076;SDS011;7114;51.100;13.998;2024-02-26T01:37:59;18.60;;;6.80;;
14076;SDS011;7114;51.100;13.998;2024-02-26T01:40:26;18.40;;;7.07;;
14076;SDS011;7114;51.100;13.998;2024-02-26T01:42:52;17.45;;;6.65;;
14076;SDS011;7114;51.100;13.998;2024-02-26T01:45:21;17.17;;;6.82;;
14076;SDS011;7114;51.100;13.998;2024-02-26T01:47:49;16.17;;;6.73;;
14076;SDS011;7114;51.100;13.998;2024-02-26T01:50:17;15.30;;;6.70;;
14076;SDS011;7114;51.100;13.998;2024-02-26T01:52:44;16.00;;;7.13;;
14076;SDS011;7114;51.100;13.998;2024-02-26T01:55:12;18.65;;;6.60;;
14076;SDS011;7114;51.100;13.998;2024-02-26T01:57:46;15.88;;;6.47;;
14076;SDS011;7114;51.100;13.998;2024-02-26T02:00:16;19.23;;;7.13;;
14076;SDS011;7114;51.100;13.998;2024-02-26T02:02:45;17.23;;;6.68;;
14076;SDS011;7114;51.100;13.998;2024-02-26T02:05:14;18.08;;;7.15;;
14076;SDS011;7114;51.100;13.998;2024-02-26T02:07:42;18.08;;;6.72;;
14076;SDS011;7114;51.100;13.998;2024-02-26T02:10:09;16.80;;;7.15;;
14076;SDS011;7114;51.100;13.998;2024-02-26T02:12:36;16.73;;;6.73;;
14076;SDS011;7114;51.100;13.998;2024-02-26T02:15:05;17.92;;;7.15;;
14076;SDS011;7114;51.100;13.998;2024-02-26T02:17:32;17.27;;;7.30;;
14076;SDS011;7114;51.100;13.998;2024-02-26T02:19:59;16.23;;;6.80;;
14076;SDS011;7114;51.100;13.998;2024-02-26T02:22:27;17.67;;;7.30;;
14076;SDS011;7114;51.100;13.998;2024-02-26T02:24:53;18.13;;;7.33;;
14076;SDS011;7114;51.100;13.998;2024-02-26T02:27:20;17.45;;;7.00;;
14076;SDS011;7114;51.100;13.998;2024-02-26T02:29:46;18.80;;;6.78;;
14076;SDS011;7114;51.100;13.998;2024-02-26T02:32:13;19.45;;;7.30;;
14076;SDS011;7114;51.100;13.998;2024-02-26T02:34:40;17.80;;;7.47;;
14076;SDS011;7114;51.100;13.998;2024-02-26T02:37:07;17.47;;;7.07;;
14076;SDS011;7114;51.100;13.998;2024-02-26T02:39:34;20.50;;;7.68;;
14076;SDS011;7114;51.100;13.998;2024-02-26T02:42:00;16.60;;;7.18;;
14076;SDS011;7114;51.100;13.998;2024-02-26T02:44:30;18.77;;;7.28;;
14076;SDS011;7114;51.100;13.998;2024-02-26T02:46:59;17.13;;;6.85;;
14076;SDS011;7114;51.100;13.998;2024-02-26T02:49:25;16.43;;;6.43;;
14076;SDS011;7114;51.100;13.998;2024-02-26T02:51:52;17.92;;;7.40;;
14076;SDS011;7114;51.100;13.998;2024-02-26T02:54:19;16.85;;;6.57;;
14076;SDS011;7114;51.100;13.998;2024-02-26T02:56:49;17.55;;;7.45;;
14076;SDS011;7114;51.100;13.998;2024-02-26T02:59:15;18.42;;;6.97;;
14076;SDS011;7114;51.100;13.998;2024-02-26T03:01:42;17.63;;;7.33;;
14076;SDS011;7114;51.100;13.998;2024-02-26T03:04:08;19.00;;;7.53;;
14076;SDS011;7114;51.100;13.998;2024-02-26T03:06:35;18.63;;;7.60;;
14076;SDS011;7114;51.100;13.998;2024-02-26T03:09:01;18.33;;;7.40;;
14076;SDS011;7114;51.100;13.998;2024-02-26T03:11:29;19.95;;;7.15;;
14076;SDS011;7114;51.100;13.998;2024-02-26T03:13:59;18.83;;;7.20;;
14076;SDS011;7114;51.100;13.998;2024-02-26T03:16:26;19.05;;;7.07;;
14076;SDS011;7114;51.100;13.998;2024-02-26T03:18:52;18.25;;;7.00;;
14076;SDS011;7114;51.100;13.998;2024-02-26T03:21:19;17.92;;;7.10;;
14076;SDS011;7114;51.100;13.998;2024-02-26T03:23:45;18.00;;;7.32;;
14076;SDS011;7114;51.100;13.998;2024-02-26T03:26:11;18.10;;;7.63;;
14076;SDS011;7114;51.100;13.998;2024-02-26T03:28:39;19.63;;;6.97;;
14076;SDS011;7114;51.100;13.998;2024-02-26T03:31:08;17.90;;;7.45;;
14076;SDS011;7114;51.100;13.998;2024-02-26T03:33:35;20.55;;;7.28;;
14076;SDS011;7114;51.100;13.998;2024-02-26T03:36:02;22.15;;;8.20;;
14076;SDS011;7114;51.100;13.998;2024-02-26T03:38:29;19.73;;;7.60;;
14076;SDS011;7114;51.100;13.998;2024-02-26T03:40:57;16.67;;;7.07;;
14076;SDS011;7114;51.100;13.998;2024-02-26T03:43:23;17.35;;;7.38;;
14076;SDS011;7114;51.100;13.998;2024-02-26T03:45:49;20.20;;;7.72;;
14076;SDS011;7114;51.100;13.998;2024-02-26T03:48:17;18.63;;;7.22;;
14076;SDS011;7114;51.100;13.998;2024-02-26T03:50:43;16.13;;;7.00;;
14076;SDS011;7114;51.100;13.998;2024-02-26T03:53:09;18.77;;;7.82;;
14076;SDS011;7114;51.100;13.998;2024-02-26T03:55:37;20.15;;;7.15;;
14076;SDS011;7114;51.100;13.998;2024-02-26T03:58:06;19.52;;;7.68;;
14076;SDS011;7114;51.100;13.998;2024-02-26T04:00:33;17.50;;;7.53;;
14076;SDS011;7114;51.100;13.998;2024-02-26T04:02:59;17.77;;;7.30;;
14076;SDS011;7114;51.100;13.998;2024-02-26T04:05:27;18.02;;;6.63;;
14076;SDS011;7114;51.100;13.998;2024-02-26T04:07:53;18.70;;;7.63;;
14076;SDS011;7114;51.100;13.998;2024-02-26T04:10:23;18.38;;;7.35;;
14076;SDS011;7114;51.100;13.998;2024-02-26T04:12:50;17.77;;;7.55;;
14076;SDS011;7114;51.100;13.998;2024-02-26T04:15:18;18.63;;;7.47;;
14076;SDS011;7114;51.100;13.998;2024-02-26T04:17:44;19.42;;;7.07;;
14076;SDS011;7114;51.100;13.998;2024-02-26T04:20:13;16.95;;;7.07;;
14076;SDS011;7114;51.100;13.998;2024-02-26T04:22:43;18.52;;;7.63;;
14076;SDS011;7114;51.100;13.998;2024-02-26T04:25:11;19.58;;;7.55;;
14076;SDS011;7114;51.100;13.998;2024-02-26T04:27:37;19.07;;;7.67;;
14076;SDS011;7114;51.100;13.998;2024-02-26T04:30:04;19.42;;;7.40;;
14076;SDS011;7114;51.100;13.998;2024-02-26T04:32:33;18.25;;;7.20;;
14076;SDS011;7114;51.100;13.998;2024-02-26T04:35:02;17.13;;;6.72;;
14076;SDS011;7114;51.100;13.998;2024-02-26T04:37:28;18.77;;;7.70;;
14076;SDS011;7114;51.100;13.998;2024-02-26T04:39:57;16.93;;;7.03;;
14076;SDS011;7114;51.100;13.998;2024-02-26T04:42:24;18.17;;;7.40;;
14076;SDS011;7114;51.100;13.998;2024-02-26T04:44:50;17.33;;;7.25;;
14076;SDS011;7114;51.100;13.998;2024-02-26T04:47:16;17.23;;;6.90;;
14076;SDS011;7114;51.100;13.998;2024-02-26T04:49:45;18.20;;;6.75;;
14076;SDS011;7114;51.100;13.998;2024-02-26T04:52:11;19.70;;;7.47;;
14076;SDS011;7114;51.100;13.998;2024-02-26T04:54:38;16.42;;;6.53;;
14076;SDS011;7114;51.100;13.998;2024-02-26T04:57:06;17.35;;;7.10;;
14076;SDS011;7114;51.100;13.998;2024-02-26T04:59:32;20.45;;;6.40;;
14076;SDS011;7114;51.100;13.998;2024-02-26T05:01:58;17.20;;;6.93;;
14076;SDS011;7114;51.100;13.998;2024-02-26T05:04:25;19.87;;;7.37;;
14076;SDS011;7114;51.100;13.998;2024-02-26T05:06:51;20.95;;;6.90;;
14076;SDS011;7114;51.100;13.998;2024-02-26T05:09:18;17.20;;;6.93;;
14076;SDS011;7114;51.100;13.998;2024-02-26T05:11:44;18.55;;;7.00;;
14076;SDS011;7114;51.100;13.998;2024-02-26T05:14:12;17.60;;;6.90;;
14076;SDS011;7114;51.100;13.998;2024-02-26T05:16:38;17.43;;;6.63;;
14076;SDS011;7114;51.100;13.998;2024-02-26T05:19:04;16.73;;;6.50;;
14076;SDS011;7114;51.100;13.998;2024-02-26T05:21:31;19.95;;;6.60;;
14076;SDS011;7114;51.100;13.998;2024-02-26T05:23:58;17.45;;;6.72;;
14076;SDS011;7114;51.100;13.998;2024-02-26T05:26:25;18.50;;;7.53;;
14076;SDS011;7114;51.100;13.998;2024-02-26T05:28:51;15.90;;;6.17;;
14076;SDS011;7114;51.100;13.998;2024-02-26T05:31:19;20.10;;;7.28;;
14076;SDS011;7114;51.100;13.998;2024-02-26T05:33:45;17.45;;;6.68;;
14076;SDS011;7114;51.100;13.998;2024-02-26T05:36:17;20.45;;;7.10;;
14076;SDS011;7114;51.100;13.998;2024-02-26T05:38:44;18.73;;;6.90;;
14076;SDS011;7114;51.100;13.998;2024-02-26T05:41:11;16.20;;;6.77;;
14076;SDS011;7114;51.100;13.998;2024-02-26T05:43:37;19.08;;;7.00;;
14076;SDS011;7114;51.100;13.998;2024-02-26T05:46:04;16.10;;;6.65;;
14076;SDS011;7114;51.100;13.998;2024-02-26T05:48:31;16.88;;;6.72;;
14076;SDS011;7114;51.100;13.998;2024-02-26T05:50:58;16.83;;;6.75;;
14076;SDS011;7114;51.100;13.998;2024-02-26T05:53:25;17.30;;;6.10;;
14076;SDS011;7114;51.100;13.998;2024-02-26T05:55:51;18.52;;;6.90;;
14076;SDS011;7114;51.100;13.998;2024-02-26T05:58:17;15.98;;;5.88;;
14076;SDS011;7114;51.100;13.998;2024-02-26T06:00:43;18.98;;;6.53;;
14076;SDS011;7114;51.100;13.998;2024-02-26T06:03:10;15.07;;;5.90;;
14076;SDS011;7114;51.100;13.998;2024-02-26T06:05:37;16.23;;;6.50;;
14076;SDS011;7114;51.100;13.998;2024-02-26T06:08:04;17.15;;;6.47;;
14076;SDS011;7114;51.100;13.998;2024-02-26T06:10:31;15.25;;;5.60;;
14076;SDS011;7114;51.100;13.998;2024-02-26T06:12:59;15.45;;;5.25;;
14076;SDS011;7114;51.100;13.998;2024-02-26T06:15:25;13.07;;;5.18;;
14076;SDS011;7114;51.100;13.998;2024-02-26T06:17:52;15.93;;;5.70;;
14076;SDS011;7114;51.100;13.998;2024-02-26T06:20:18;16.27;;;5.85;;
14076;SDS011;7114;51.100;13.998;2024-02-26T06:22:46;15.80;;;5.78;;
14076;SDS011;7114;51.100;13.998;2024-02-26T06:25:13;16.60;;;5.93;;
14076;SDS011;7114;51.100;13.998;2024-02-26T06:27:39;17.13;;;5.50;;
14076;SDS011;7114;51.100;13.998;2024-02-26T06:30:06;16.90;;;6.07;;
14076;SDS011;7114;51.100;13.998;2024-02-26T06:32:33;16.60;;;5.45;;
14076;SDS011;7114;51.100;13.998;2024-02-26T06:35:00;16.60;;;5.70;;
14076;SDS011;7114;51.100;13.998;2024-02-26T06:37:26;14.88;;;5.55;;
14076;SDS011;7114;51.100;13.998;2024-02-26T06:39:54;12.32;;;5.18;;
14076;SDS011;7114;51.100;13.998;2024-02-26T06:42:20;13.27;;;5.50;;
14076;SDS011;7114;51.100;13.998;2024-02-26T06:44:47;14.25;;;5.75;;
14076;SDS011;7114;51.100;13.998;2024-02-26T06:47:13;14.35;;;6.03;;
14076;SDS011;7114;51.100;13.998;2024-02-26T06:49:40;14.70;;;5.78;;
14076;SDS011;7114;51.100;13.998;2024-02-26T06:52:06;14.43;;;6.18;;
14076;SDS011;7114;51.100;13.998;2024-02-26T06:54:35;15.20;;;5.17;;
14076;SDS011;7114;51.100;13.998;2024-02-26T06:57:03;14.93;;;6.03;;
14076;SDS011;7114;51.100;13.998;2024-02-26T06:59:30;14.70;;;5.97;;
14076;SDS011;7114;51.100;13.998;2024-02-26T07:01:56;13.75;;;5.40;;
14076;SDS011;7114;51.100;13.998;2024-02-26T07:04:22;13.55;;;5.47;;
14076;SDS011;7114;51.100;13.998;2024-02-26T07:06:48;14.40;;;5.60;;
14076;SDS011;7114;51.100;13.998;2024-02-26T07:09:15;13.43;;;5.55;;
14076;SDS011;7114;51.100;13.998;2024-02-26T07:11:41;14.32;;;5.15;;
14076;SDS011;7114;51.100;13.998;2024-02-26T07:14:10;12.27;;;5.10;;
14076;SDS011;7114;51.100;13.998;2024-02-26T07:16:37;13.88;;;5.18;;
14076;SDS011;7114;51.100;13.998;2024-02-26T07:19:05;11.90;;;4.47;;
14076;SDS011;7114;51.100;13.998;2024-02-26T07:21:32;11.35;;;4.47;;
14076;SDS011;7114;51.100;13.998;2024-02-26T07:23:58;13.25;;;4.55;;
14076;SDS011;7114;51.100;13.998;2024-02-26T07:26:25;11.32;;;4.50;;
14076;SDS011;7114;51.100;13.998;2024-02-26T07:28:52;12.98;;;4.78;;
14076;SDS011;7114;51.100;13.998;2024-02-26T07:31:22;12.37;;;4.87;;
14076;SDS011;7114;51.100;13.998;2024-02-26T07:33:49;11.10;;;4.63;;
14076;SDS011;7114;51.100;13.998;2024-02-26T07:36:17;12.40;;;4.60;;
14076;SDS011;7114;51.100;13.998;2024-02-26T07:38:44;11.93;;;4.28;;
14076;SDS011;7114;51.100;13.998;2024-02-26T07:41:12;12.50;;;4.35;;
14076;SDS011;7114;51.100;13.998;2024-02-26T07:43:43;10.37;;;3.73;;
14076;SDS011;7114;51.100;13.998;2024-02-26T07:46:11;10.80;;;4.18;;
14076;SDS011;7114;51.100;13.998;2024-02-26T07:48:39;10.32;;;4.40;;
14076;SDS011;7114;51.100;13.998;2024-02-26T07:51:07;11.82;;;4.30;;
14076;SDS011;7114;51.100;13.998;2024-02-26T07:53:33;12.73;;;4.28;;
14076;SDS011;7114;51.100;13.998;2024-02-26T07:56:00;11.47;;;4.27;;
14076;SDS011;7114;51.100;13.998;2024-02-26T07:58:28;12.45;;;4.30;;
14076;SDS011;7114;51.100;13.998;2024-02-26T08:00:54;11.10;;;4.30;;
14076;SDS011;7114;51.100;13.998;2024-02-26T08:03:20;11.15;;;4.47;;
14076;SDS011;7114;51.100;13.998;2024-02-26T08:05:48;13.65;;;4.68;;
14076;SDS011;7114;51.100;13.998;2024-02-26T08:08:14;11.63;;;4.60;;
14076;SDS011;7114;51.100;13.998;2024-02-26T08:10:41;14.50;;;4.53;;
14076;SDS011;7114;51.100;13.998;2024-02-26T08:13:07;11.93;;;4.45;;
14076;SDS011;7114;51.100;13.998;2024-02-26T08:15:34;12.63;;;4.22;;
14076;SDS011;7114;51.100;13.998;2024-02-26T08:18:02;12.88;;;5.20;;
14076;SDS011;7114;51.100;13.998;2024-02-26T08:20:29;15.40;;;5.47;;
14076;SDS011;7114;51.100;13.998;2024-02-26T08:22:57;13.07;;;5.25;;
14076;SDS011;7114;51.100;13.998;2024-02-26T08:25:24;12.38;;;4.70;;
14076;SDS011;7114;51.100;13.998;2024-02-26T08:27:51;13.63;;;5.20;;
14076;SDS011;7114;51.100;13.998;2024-02-26T08:30:18;13.32;;;5.28;;
14076;SDS011;7114;51.100;13.998;2024-02-26T08:32:44;13.33;;;4.90;;
14076;SDS011;7114;51.100;13.998;2024-02-26T08:35:11;12.05;;;5.10;;
14076;SDS011;7114;51.100;13.998;2024-02-26T08:37:37;13.13;;;5.43;;
14076;SDS011;7114;51.100;13.998;2024-02-26T08:40:07;14.25;;;5.38;;
14076;SDS011;7114;51.100;13.998;2024-02-26T08:42:34;12.45;;;5.22;;
14076;SDS011;7114;51.100;13.998;2024-02-26T08:45:01;11.33;;;5.37;;
14076;SDS011;7114;51.100;13.998;2024-02-26T08:47:28;12.30;;;5.30;;
14076;SDS011;7114;51.100;13.998;2024-02-26T08:49:54;12.50;;;5.68;;
14076;SDS011;7114;51.100;13.998;2024-02-26T08:52:20;11.48;;;5.10;;
14076;SDS011;7114;51.100;13.998;2024-02-26T08:54:48;13.45;;;5.18;;
14076;SDS011;7114;51.100;13.998;2024-02-26T08:57:16;13.47;;;5.43;;
14076;SDS011;7114;51.100;13.998;2024-02-26T08:59:42;15.95;;;5.82;;
14076;SDS011;7114;51.100;13.998;2024-02-26T09:02:08;16.52;;;5.80;;
14076;SDS011;7114;51.100;13.998;2024-02-26T09:04:35;14.27;;;5.43;;
14076;SDS011;7114;51.100;13.998;2024-02-26T09:07:01;12.50;;;5.40;;
14076;SDS011;7114;51.100;13.998;2024-02-26T09:09:31;13.60;;;5.60;;
14076;SDS011;7114;51.100;13.998;2024-02-26T09:11:57;12.63;;;5.63;;
14076;SDS011;7114;51.100;13.998;2024-02-26T09:14:25;12.15;;;5.20;;
14076;SDS011;7114;51.100;13.998;2024-02-26T09:16:51;13.40;;;5.60;;
14076;SDS011;7114;51.100;13.998;2024-02-26T09:19:18;13.60;;;5.75;;
14076;SDS011;7114;51.100;13.998;2024-02-26T09:21:44;15.53;;;5.77;;
14076;SDS011;7114;51.100;13.998;2024-02-26T09:24:11;12.25;;;5.57;;
14076;SDS011;7114;51.100;13.998;2024-02-26T09:26:38;14.45;;;5.65;;
14076;SDS011;7114;51.100;13.998;2024-02-26T09:29:04;12.80;;;5.55;;
14076;SDS011;7114;51.100;13.998;2024-02-26T09:31:32;13.40;;;6.07;;
14076;SDS011;7114;51.100;13.998;2024-02-26T09:33:59;13.93;;;5.63;;
14076;SDS011;7114;51.100;13.998;2024-02-26T09:36:25;12.30;;;5.53;;
14076;SDS011;7114;51.100;13.998;2024-02-26T09:38:51;13.48;;;5.97;;
14076;SDS011;7114;51.100;13.998;2024-02-26T09:41:18;13.07;;;5.50;;
14076;SDS011;7114;51.100;13.998;2024-02-26T09:43:44;12.15;;;5.80;;
14076;SDS011;7114;51.100;13.998;2024-02-26T09:46:12;12.53;;;5.93;;
14076;SDS011;7114;51.100;13.998;2024-02-26T09:48:40;14.70;;;5.68;;
14076;SDS011;7114;51.100;13.998;2024-02-26T09:51:06;14.40;;;6.07;;
14076;SDS011;7114;51.100;13.998;2024-02-26T09:53:33;11.75;;;5.45;;
14076;SDS011;7114;51.100;13.998;2024-02-26T09:56:04;12.10;;;5.70;;
14076;SDS011;7114;51.100;13.998;2024-02-26T09:58:31;11.00;;;5.63;;
14076;SDS011;7114;51.100;13.998;2024-02-26T10:00:58;11.27;;;5.75;;
14076;SDS011;7114;51.100;13.998;2024-02-26T10:03:28;11.75;;;5.60;;
14076;SDS011;7114;51.100;13.998;2024-02-26T10:06:00;12.02;;;5.93;;
14076;SDS011;7114;51.100;13.998;2024-02-26T10:08:29;12.82;;;5.60;;
14076;SDS011;7114;51.100;13.998;2024-02-26T10:10:55;12.50;;;5.53;;
14076;SDS011;7114;51.100;13.998;2024-02-26T10:13:22;12.45;;;5.65;;
14076;SDS011;7114;51.100;13.998;2024-02-26T10:15:48;12.23;;;5.75;;
14076;SDS011;7114;51.100;13.998;2024-02-26T10:18:15;13.00;;;5.97;;
14076;SDS011;7114;51.100;13.998;2024-02-26T10:20:41;11.73;;;5.95;;
14076;SDS011;7114;51.100;13.998;2024-02-26T10:23:09;12.87;;;5.63;;
14076;SDS011;7114;51.100;13.998;2024-02-26T10:25:36;11.32;;;5.68;;
14076;SDS011;7114;51.100;13.998;2024-02-26T10:28:02;12.65;;;6.30;;
14076;SDS011;7114;51.100;13.998;2024-02-26T10:30:29;13.30;;;6.28;;
14076;SDS011;7114;51.100;13.998;2024-02-26T10:32:56;12.93;;;6.35;;
14076;SDS011;7114;51.100;13.998;2024-02-26T10:35:23;12.83;;;6.43;;
14076;SDS011;7114;51.100;13.998;2024-02-26T10:37:50;12.13;;;6.28;;
14076;SDS011;7114;51.100;13.998;2024-02-26T10:40:18;12.10;;;5.85;;
14076;SDS011;7114;51.100;13.998;2024-02-26T10:42:44;13.00;;;6.35;;
14076;SDS011;7114;51.100;13.998;2024-02-26T10:45:11;14.02;;;6.35;;
14076;SDS011;7114;51.100;13.998;2024-02-26T10:47:37;13.73;;;6.20;;
14076;SDS011;7114;51.100;13.998;2024-02-26T10:50:04;13.68;;;6.57;;
14076;SDS011;7114;51.100;13.998;2024-02-26T10:52:32;12.20;;;6.15;;
14076;SDS011;7114;51.100;13.998;2024-02-26T10:55:00;12.90;;;5.88;;
14076;SDS011;7114;51.100;13.998;2024-02-26T10:57:31;11.93;;;5.93;;
14076;SDS011;7114;51.100;13.998;2024-02-26T10:59:59;11.90;;;6.07;;
14076;SDS011;7114;51.100;13.998;2024-02-26T11:02:26;12.75;;;6.00;;
14076;SDS011;7114;51.100;13.998;2024-02-26T11:04:53;12.25;;;6.03;;
14076;SDS011;7114;51.100;13.998;2024-02-26T11:07:19;12.93;;;6.10;;
14076;SDS011;7114;51.100;13.998;2024-02-26T11:09:46;12.57;;;6.03;;
14076;SDS011;7114;51.100;13.998;2024-02-26T11:12:17;11.47;;;6.00;;
14076;SDS011;7114;51.100;13.998;2024-02-26T11:14:46;11.18;;;5.68;;
14076;SDS011;7114;51.100;13.998;2024-02-26T11:17:12;10.50;;;5.32;;
14076;SDS011;7114;51.100;13.998;2024-02-26T11:19:39;10.52;;;5.55;;
14076;SDS011;7114;51.100;13.998;2024-02-26T11:22:07;11.02;;;5.63;;
14076;SDS011;7114;51.100;13.998;2024-02-26T11:24:34;12.83;;;5.70;;
14076;SDS011;7114;51.100;13.998;2024-02-26T11:27:05;10.32;;;5.20;;
14076;SDS011;7114;51.100;13.998;2024-02-26T11:29:34;11.30;;;5.50;;
14076;SDS011;7114;51.100;13.998;2024-02-26T11:32:05;11.50;;;5.47;;
14076;SDS011;7114;51.100;13.998;2024-02-26T11:34:32;10.00;;;4.97;;
14076;SDS011;7114;51.100;13.998;2024-02-26T11:37:08;11.77;;;5.90;;
14076;SDS011;7114;51.100;13.998;2024-02-26T11:39:35;10.93;;;5.53;;
14076;SDS011;7114;51.100;13.998;2024-02-26T11:42:04;11.00;;;5.82;;
14076;SDS011;7114;51.100;13.998;2024-02-26T11:44:33;11.65;;;5.45;;
14076;SDS011;7114;51.100;13.998;2024-02-26T11:47:06;10.80;;;5.55;;
14076;SDS011;7114;51.100;13.998;2024-02-26T11:49:35;11.47;;;5.63;;
14076;SDS011;7114;51.100;13.998;2024-02-26T11:52:05;11.50;;;5.50;;
14076;SDS011;7114;51.100;13.998;2024-02-26T11:54:39;12.02;;;5.47;;
14076;SDS011;7114;51.100;13.998;2024-02-26T11:57:26;12.13;;;5.57;;
14076;SDS011;7114;51.100;13.998;2024-02-26T11:59:53;11.25;;;5.35;;
14076;SDS011;7114;51.100;13.998;2024-02-26T12:05:10;11.02;;;5.70;;
14076;SDS011;7114;51.100;13.998;2024-02-26T12:07:39;11.30;;;5.00;;
14076;SDS011;7114;51.100;13.998;2024-02-26T12:10:15;10.57;;;4.72;;
14076;SDS011;7114;51.100;13.998;2024-02-26T12:12:50;11.57;;;4.90;;
14076;SDS011;7114;51.100;13.998;2024-02-26T12:15:19;10.63;;;4.80;;
14076;SDS011;7114;51.100;13.998;2024-02-26T12:17:49;10.00;;;4.72;;
14076;SDS011;7114;51.100;13.998;2024-02-26T12:20:16;12.13;;;5.90;;
14076;SDS011;7114;51.100;13.998;2024-02-26T12:22:44;9.88;;;5.05;;
14076;SDS011;7114;51.100;13.998;2024-02-26T12:25:12;11.02;;;5.22;;
14076;SDS011;7114;51.100;13.998;2024-02-26T12:27:38;9.77;;;4.90;;
14076;SDS011;7114;51.100;13.998;2024-02-26T12:30:05;15.07;;;5.32;;
14076;SDS011;7114;51.100;13.998;2024-02-26T12:32:33;10.85;;;5.18;;
14076;SDS011;7114;51.100;13.998;2024-02-26T12:35:00;13.18;;;4.80;;
14076;SDS011;7114;51.100;13.998;2024-02-26T12:37:27;12.02;;;4.60;;
14076;SDS011;7114;51.100;13.998;2024-02-26T12:39:53;10.50;;;5.00;;
14076;SDS011;7114;51.100;13.998;2024-02-26T12:42:19;11.65;;;5.32;;
14076;SDS011;7114;51.100;13.998;2024-02-26T12:44:46;11.07;;;4.95;;
14076;SDS011;7114;51.100;13.998;2024-02-26T12:47:12;11.30;;;5.10;;
14076;SDS011;7114;51.100;13.998;2024-02-26T12:49:41;13.20;;;5.03;;
14076;SDS011;7114;51.100;13.998;2024-02-26T12:52:09;18.23;;;6.13;;
14076;SDS011;7114;51.100;13.998;2024-02-26T12:54:36;16.50;;;5.43;;
14076;SDS011;7114;51.100;13.998;2024-02-26T12:57:04;11.85;;;4.88;;
14076;SDS011;7114;51.100;13.998;2024-02-26T12:59:31;11.32;;;5.40;;
14076;SDS011;7114;51.100;13.998;2024-02-26T13:01:58;11.57;;;5.20;;
14076;SDS011;7114;51.100;13.998;2024-02-26T13:04:24;12.60;;;4.93;;
14076;SDS011;7114;51.100;13.998;2024-02-26T13:06:51;11.93;;;5.13;;
14076;SDS011;7114;51.100;13.998;2024-02-26T13:09:19;11.25;;;5.07;;
14076;SDS011;7114;51.100;13.998;2024-02-26T13:11:47;12.73;;;5.22;;
14076;SDS011;7114;51.100;13.998;2024-02-26T13:14:19;11.45;;;5.20;;
14076;SDS011;7114;51.100;13.998;2024-02-26T13:16:53;11.63;;;5.03;;
14076;SDS011;7114;51.100;13.998;2024-02-26T13:19:21;12.18;;;5.22;;
14076;SDS011;7114;51.100;13.998;2024-02-26T13:21:47;13.00;;;5.05;;
14076;SDS011;7114;51.100;13.998;2024-02-26T13:24:14;11.30;;;5.15;;
14076;SDS011;7114;51.100;13.998;2024-02-26T13:26:41;11.05;;;4.93;;
14076;SDS011;7114;51.100;13.998;2024-02-26T13:29:08;10.70;;;5.03;;
14076;SDS011;7114;51.100;13.998;2024-02-26T13:31:38;10.10;;;4.90;;
14076;SDS011;7114;51.100;13.998;2024-02-26T13:34:06;14.23;;;4.85;;
14076;SDS011;7114;51.100;13.998;2024-02-26T13:36:32;11.18;;;5.30;;
14076;SDS011;7114;51.100;13.998;2024-02-26T13:38:58;11.05;;;5.18;;
14076;SDS011;7114;51.100;13.998;2024-02-26T13:41:25;11.70;;;4.77;;
14076;SDS011;7114;51.100;13.998;2024-02-26T13:43:53;12.07;;;5.25;;
14076;SDS011;7114;51.100;13.998;2024-02-26T13:46:19;33.47;;;6.18;;
14076;SDS011;7114;51.100;13.998;2024-02-26T13:48:46;15.38;;;5.05;;
14076;SDS011;7114;51.100;13.998;2024-02-26T13:51:12;10.05;;;4.82;;
14076;SDS011;7114;51.100;13.998;2024-02-26T13:53:38;11.27;;;5.27;;
14076;SDS011;7114;51.100;13.998;2024-02-26T13:56:05;10.45;;;5.10;;
14076;SDS011;7114;51.100;13.998;2024-02-26T13:58:32;10.88;;;4.90;;
14076;SDS011;7114;51.100;13.998;2024-02-26T14:00:59;11.35;;;4.90;;
14076;SDS011;7114;51.100;13.998;2024-02-26T14:03:28;11.27;;;5.03;;
14076;SDS011;7114;51.100;13.998;2024-02-26T14:05:55;10.73;;;4.70;;
14076;SDS011;7114;51.100;13.998;2024-02-26T14:08:21;11.02;;;4.57;;
14076;SDS011;7114;51.100;13.998;2024-02-26T14:10:48;10.35;;;4.60;;
14076;SDS011;7114;51.100;13.998;2024-02-26T14:13:14;10.35;;;4.85;;
14076;SDS011;7114;51.100;13.998;2024-02-26T14:15:41;11.30;;;5.25;;
14076;SDS011;7114;51.100;13.998;2024-02-26T14:18:08;10.60;;;4.67;;
14076;SDS011;7114;51.100;13.998;2024-02-26T14:20:35;11.77;;;5.28;;
14076;SDS011;7114;51.100;13.998;2024-02-26T14:23:01;11.93;;;5.00;;
14076;SDS011;7114;51.100;13.998;2024-02-26T14:25:27;11.00;;;5.05;;
14076;SDS011;7114;51.100;13.998;2024-02-26T14:27:54;11.35;;;5.03;;
14076;SDS011;7114;51.100;13.998;2024-02-26T14:30:22;11.80;;;5.10;;
14076;SDS011;7114;51.100;13.998;2024-02-26T14:32:49;10.05;;;4.78;;
14076;SDS011;7114;51.100;13.998;2024-02-26T14:35:16;12.52;;;5.15;;
14076;SDS011;7114;51.100;13.998;2024-02-26T14:37:43;10.43;;;4.97;;